CMA CGM Volga — 5BJR2 — position and weather

sailwx.info

Track history (hours):
 
Tides and Currents Weather Stations Pressure Air Temp Water Temp Dewpoint Dewpoint Depression Visibility Wind Speed Wind Dir Waves Ship Positions

CMA CGM Volga

Last reported at 2017-Jan-17 04:33 UTC. Time now 2017-Jan-17 04:49 UTC.
Position N 59°54' E 030°04'.

Length 184 m; draft 8 m.

Type: Ship (hazmat cat A). MMSI: 212456000.

Date/timePositionNaut miles runAvg speedWind from/ knotsBaromVisibWave heightAir tempDewpointWater temp
2017-Jan-17 04:33N 59°54' E 030°04'1110.6
2017-Jan-17 03:33N 59°59' E 029°45'24 2.9
2017-Jan-16 19:19N 60°01' E 028°58'911.5
2017-Jan-16 18:33N 60°02' E 028°40'8 8.2
2017-Jan-16 17:33N 59°55' E 028°32'1212.2
2017-Jan-16 16:34N 59°43' E 028°23'3 2.7
2017-Jan-16 15:27N 59°40' E 028°24'0 0.0
2017-Jan-16 14:30N 59°40' E 028°24'0 0.0
2017-Jan-16 13:33N 59°40' E 028°24'0 0.0
2017-Jan-16 12:33N 59°40' E 028°24'0 0.0
2017-Jan-16 11:30N 59°40' E 028°24'0 0.0
2017-Jan-16 10:33N 59°40' E 028°24'0 0.0
2017-Jan-16 09:33N 59°40' E 028°24'0 0.0
2017-Jan-16 08:33N 59°40' E 028°24'0 0.0
2017-Jan-16 07:24N 59°40' E 028°24'0 0.0
2017-Jan-16 06:21N 59°40' E 028°24'0 0.0
2017-Jan-16 05:27N 59°40' E 028°24'1 0.7
2017-Jan-16 04:34N 59°41' E 028°24'1110.6
2017-Jan-16 03:33N 59°52' E 028°27'7 7.0
2017-Jan-16 02:33N 59°56' E 028°37'0 0.4
2017-Jan-16 01:33N 59°56' E 028°38'0 0.3
2017-Jan-16 00:33N 59°56' E 028°38'0 0.0
2017-Jan-15 23:31N 59°56' E 028°38'0 0.2
2017-Jan-15 22:33N 59°56' E 028°38'0 0.1
2017-Jan-15 21:33N 59°56' E 028°39'0 0.2
2017-Jan-15 20:33N 59°56' E 028°39'0 0.3
2017-Jan-15 19:32N 59°56' E 028°39'0 0.1
2017-Jan-15 18:32N 59°56' E 028°39'0 0.0
2017-Jan-15 17:20N 59°56' E 028°39'0 0.0
2017-Jan-15 16:32N 59°56' E 028°39'0 0.0
2017-Jan-15 15:23N 59°56' E 028°39'0 0.0
2017-Jan-15 14:20N 59°56' E 028°39'0 0.4
2017-Jan-15 13:32N 59°56' E 028°39'9 9.6
2017-Jan-15 12:33N 60°03' E 028°26'1313.4
2017-Jan-15 11:33N 60°09' E 028°02'1312.5
2017-Jan-15 10:30N 60°07' E 027°35'2512.8
2017-Jan-15 08:33N 59°59' E 026°48'1413.3
2017-Jan-15 07:30N 59°56' E 026°21'78 3.4
2017-Jan-14 08:31N 59°38' E 023°51'1414.0
2017-Jan-14 07:33N 59°34' E 023°26'30713.2
2017-Jan-13 08:23N 55°02' E 019°03'1213.9
2017-Jan-13 07:33N 54°50' E 019°04'1414.2
2017-Jan-13 06:33N 54°36' E 019°07'1313.1
2017-Jan-13 05:33N 54°26' E 018°54'7 6.5
2017-Jan-13 04:32N 54°23' E 018°43'0 0.0
2017-Jan-13 03:32N 54°23' E 018°43'0 0.0
2017-Jan-13 02:32N 54°23' E 018°43'0 0.0
2017-Jan-13 01:29N 54°23' E 018°43'0 0.0
2017-Jan-13 00:32N 54°23' E 018°43'0 0.0
2017-Jan-12 23:32N 54°23' E 018°43'0 0.0
2017-Jan-12 22:32N 54°23' E 018°43'0 0.0
2017-Jan-12 21:32N 54°23' E 018°43'0 0.0
2017-Jan-12 20:32N 54°23' E 018°43'0 0.0
2017-Jan-12 19:32N 54°23' E 018°43'0 0.0
2017-Jan-12 18:29N 54°23' E 018°43'0 0.0
2017-Jan-12 17:32N 54°23' E 018°43'0 0.0
2017-Jan-12 16:32N 54°23' E 018°43'0 0.0
2017-Jan-12 15:32N 54°23' E 018°43'0 0.0
2017-Jan-12 14:32N 54°23' E 018°43'0 0.0
2017-Jan-12 13:32N 54°23' E 018°43'0 0.0
2017-Jan-12 12:32N 54°23' E 018°43'0 0.0
2017-Jan-12 11:32N 54°23' E 018°43'0 0.0
2017-Jan-12 10:32N 54°23' E 018°43'0 0.0
2017-Jan-12 09:32N 54°23' E 018°43'0 0.0
2017-Jan-12 08:32N 54°23' E 018°43'0 0.0
2017-Jan-12 07:32N 54°23' E 018°43'0 0.0
2017-Jan-12 06:32N 54°23' E 018°43'0 0.1
2017-Jan-12 05:33N 54°23' E 018°43'5 4.7
2017-Jan-12 04:32N 54°26' E 018°50'0 0.1
2017-Jan-12 03:32N 54°26' E 018°50'0 0.0
2017-Jan-12 02:32N 54°26' E 018°50'0 0.0
2017-Jan-12 01:29N 54°26' E 018°50'0 0.0
2017-Jan-12 00:32N 54°26' E 018°50'0 0.0
2017-Jan-11 23:32N 54°26' E 018°50'0 0.0
2017-Jan-11 22:29N 54°26' E 018°50'0 0.0
2017-Jan-11 21:32N 54°26' E 018°50'0 0.0
2017-Jan-11 20:32N 54°26' E 018°50'0 0.0
2017-Jan-11 19:32N 54°26' E 018°50'0 0.0
2017-Jan-11 18:32N 54°26' E 018°50'0 0.0
2017-Jan-11 17:32N 54°26' E 018°50'0 0.0
2017-Jan-11 16:29N 54°26' E 018°50'0 0.0
2017-Jan-11 15:32N 54°26' E 018°50'0 0.0
2017-Jan-11 14:29N 54°26' E 018°50'0 0.0
2017-Jan-11 13:32N 54°26' E 018°50'0 0.0
2017-Jan-11 12:32N 54°26' E 018°50'0 0.0
2017-Jan-11 11:32N 54°26' E 018°50'0 0.0
2017-Jan-11 10:32N 54°26' E 018°50'0 0.0
2017-Jan-11 09:32N 54°26' E 018°50'0 0.0
2017-Jan-11 08:32N 54°26' E 018°50'0 0.0
2017-Jan-11 07:32N 54°26' E 018°50'0 0.0
2017-Jan-11 06:32N 54°26' E 018°50'0 0.0
2017-Jan-11 05:32N 54°26' E 018°50'0 0.0
2017-Jan-11 04:32N 54°26' E 018°50'0 0.0
2017-Jan-11 03:32N 54°26' E 018°50'0 0.0
2017-Jan-11 02:32N 54°26' E 018°50'0 0.0
2017-Jan-11 01:32N 54°26' E 018°50'0 0.0
2017-Jan-11 00:32N 54°26' E 018°50'0 0.0
2017-Jan-10 23:32N 54°26' E 018°50'0 0.0
2017-Jan-10 22:32N 54°26' E 018°50'0 0.0
2017-Jan-10 21:32N 54°26' E 018°50'0 0.0
2017-Jan-10 20:32N 54°26' E 018°50'0 0.0
2017-Jan-10 19:32N 54°26' E 018°50'7 7.3
2017-Jan-10 18:33N 54°31' E 018°59'1111.2
2017-Jan-10 17:33N 54°42' E 019°03'1212.3
2017-Jan-10 16:33N 54°54' E 019°02'1312.5
2017-Jan-10 15:33N 55°07' E 019°02'301 6.5
2017-Jan-08 17:06N 59°35' E 023°13'611.3
2017-Jan-08 16:33N 59°37' E 023°25'1111.6
2017-Jan-08 15:33N 59°41' E 023°46'8 0.4
2017-Jan-07 19:06N 59°39' E 024°01'814.0
2017-Jan-07 18:31N 59°36' E 023°45'1414.1
2017-Jan-07 17:33N 59°31' E 023°20'  
Track history (hours):
 
Tides and Currents Weather Stations Pressure Air Temp Water Temp Dewpoint Dewpoint Depression Visibility Wind Speed Wind Dir Waves Ship Positions

CMA CGM Volga

Last reported at 2017-Jan-17 04:33 UTC. Time now 2017-Jan-17 04:49 UTC.
Position N 59°54' E 030°04'.

Length 184 m; draft 8 m.

Type: Ship (hazmat cat A). MMSI: 212456000.

Date/timePositionNaut miles runAvg speedWind from/ knotsBaromVisibWave heightAir tempDewpointWater temp
2017-Jan-17 04:33N 59°54' E 030°04'1110.6
2017-Jan-17 03:33N 59°59' E 029°45'24 2.9
2017-Jan-16 19:19N 60°01' E 028°58'911.5
2017-Jan-16 18:33N 60°02' E 028°40'8 8.2
2017-Jan-16 17:33N 59°55' E 028°32'1212.2
2017-Jan-16 16:34N 59°43' E 028°23'3 2.7
2017-Jan-16 15:27N 59°40' E 028°24'0 0.0
2017-Jan-16 14:30N 59°40' E 028°24'0 0.0
2017-Jan-16 13:33N 59°40' E 028°24'0 0.0
2017-Jan-16 12:33N 59°40' E 028°24'0 0.0
2017-Jan-16 11:30N 59°40' E 028°24'0 0.0
2017-Jan-16 10:33N 59°40' E 028°24'0 0.0
2017-Jan-16 09:33N 59°40' E 028°24'0 0.0
2017-Jan-16 08:33N 59°40' E 028°24'0 0.0
2017-Jan-16 07:24N 59°40' E 028°24'0 0.0
2017-Jan-16 06:21N 59°40' E 028°24'0 0.0
2017-Jan-16 05:27N 59°40' E 028°24'1 0.7
2017-Jan-16 04:34N 59°41' E 028°24'1110.6
2017-Jan-16 03:33N 59°52' E 028°27'7 7.0
2017-Jan-16 02:33N 59°56' E 028°37'0 0.4
2017-Jan-16 01:33N 59°56' E 028°38'0 0.3
2017-Jan-16 00:33N 59°56' E 028°38'0 0.0
2017-Jan-15 23:31N 59°56' E 028°38'0 0.2
2017-Jan-15 22:33N 59°56' E 028°38'0 0.1
2017-Jan-15 21:33N 59°56' E 028°39'0 0.2
2017-Jan-15 20:33N 59°56' E 028°39'0 0.3
2017-Jan-15 19:32N 59°56' E 028°39'0 0.1
2017-Jan-15 18:32N 59°56' E 028°39'0 0.0
2017-Jan-15 17:20N 59°56' E 028°39'0 0.0
2017-Jan-15 16:32N 59°56' E 028°39'0 0.0
2017-Jan-15 15:23N 59°56' E 028°39'0 0.0
2017-Jan-15 14:20N 59°56' E 028°39'0 0.4
2017-Jan-15 13:32N 59°56' E 028°39'9 9.6
2017-Jan-15 12:33N 60°03' E 028°26'1313.4
2017-Jan-15 11:33N 60°09' E 028°02'1312.5
2017-Jan-15 10:30N 60°07' E 027°35'2512.8
2017-Jan-15 08:33N 59°59' E 026°48'1413.3
2017-Jan-15 07:30N 59°56' E 026°21'78 3.4
2017-Jan-14 08:31N 59°38' E 023°51'1414.0
2017-Jan-14 07:33N 59°34' E 023°26'30713.2
2017-Jan-13 08:23N 55°02' E 019°03'1213.9
2017-Jan-13 07:33N 54°50' E 019°04'1414.2
2017-Jan-13 06:33N 54°36' E 019°07'1313.1
2017-Jan-13 05:33N 54°26' E 018°54'7 6.5
2017-Jan-13 04:32N 54°23' E 018°43'0 0.0
2017-Jan-13 03:32N 54°23' E 018°43'0 0.0
2017-Jan-13 02:32N 54°23' E 018°43'0 0.0
2017-Jan-13 01:29N 54°23' E 018°43'0 0.0
2017-Jan-13 00:32N 54°23' E 018°43'0 0.0
2017-Jan-12 23:32N 54°23' E 018°43'0 0.0
2017-Jan-12 22:32N 54°23' E 018°43'0 0.0
2017-Jan-12 21:32N 54°23' E 018°43'0 0.0
2017-Jan-12 20:32N 54°23' E 018°43'0 0.0
2017-Jan-12 19:32N 54°23' E 018°43'0 0.0
2017-Jan-12 18:29N 54°23' E 018°43'0 0.0
2017-Jan-12 17:32N 54°23' E 018°43'0 0.0
2017-Jan-12 16:32N 54°23' E 018°43'0 0.0
2017-Jan-12 15:32N 54°23' E 018°43'0 0.0
2017-Jan-12 14:32N 54°23' E 018°43'0 0.0
2017-Jan-12 13:32N 54°23' E 018°43'0 0.0
2017-Jan-12 12:32N 54°23' E 018°43'0 0.0
2017-Jan-12 11:32N 54°23' E 018°43'0 0.0
2017-Jan-12 10:32N 54°23' E 018°43'0 0.0
2017-Jan-12 09:32N 54°23' E 018°43'0 0.0
2017-Jan-12 08:32N 54°23' E 018°43'0 0.0
2017-Jan-12 07:32N 54°23' E 018°43'0 0.0
2017-Jan-12 06:32N 54°23' E 018°43'0 0.1
2017-Jan-12 05:33N 54°23' E 018°43'5 4.7
2017-Jan-12 04:32N 54°26' E 018°50'0 0.1
2017-Jan-12 03:32N 54°26' E 018°50'0 0.0
2017-Jan-12 02:32N 54°26' E 018°50'0 0.0
2017-Jan-12 01:29N 54°26' E 018°50'0 0.0
2017-Jan-12 00:32N 54°26' E 018°50'0 0.0
2017-Jan-11 23:32N 54°26' E 018°50'0 0.0
2017-Jan-11 22:29N 54°26' E 018°50'0 0.0
2017-Jan-11 21:32N 54°26' E 018°50'0 0.0
2017-Jan-11 20:32N 54°26' E 018°50'0 0.0
2017-Jan-11 19:32N 54°26' E 018°50'0 0.0
2017-Jan-11 18:32N 54°26' E 018°50'0 0.0
2017-Jan-11 17:32N 54°26' E 018°50'0 0.0
2017-Jan-11 16:29N 54°26' E 018°50'0 0.0
2017-Jan-11 15:32N 54°26' E 018°50'0 0.0
2017-Jan-11 14:29N 54°26' E 018°50'0 0.0
2017-Jan-11 13:32N 54°26' E 018°50'0 0.0
2017-Jan-11 12:32N 54°26' E 018°50'0 0.0
2017-Jan-11 11:32N 54°26' E 018°50'0 0.0
2017-Jan-11 10:32N 54°26' E 018°50'0 0.0
2017-Jan-11 09:32N 54°26' E 018°50'0 0.0
2017-Jan-11 08:32N 54°26' E 018°50'0 0.0
2017-Jan-11 07:32N 54°26' E 018°50'0 0.0
2017-Jan-11 06:32N 54°26' E 018°50'0 0.0
2017-Jan-11 05:32N 54°26' E 018°50'0 0.0
2017-Jan-11 04:32N 54°26' E 018°50'0 0.0
2017-Jan-11 03:32N 54°26' E 018°50'0 0.0
2017-Jan-11 02:32N 54°26' E 018°50'0 0.0
2017-Jan-11 01:32N 54°26' E 018°50'0 0.0
2017-Jan-11 00:32N 54°26' E 018°50'0 0.0
2017-Jan-10 23:32N 54°26' E 018°50'0 0.0
2017-Jan-10 22:32N 54°26' E 018°50'0 0.0
2017-Jan-10 21:32N 54°26' E 018°50'0 0.0
2017-Jan-10 20:32N 54°26' E 018°50'0 0.0
2017-Jan-10 19:32N 54°26' E 018°50'7 7.3
2017-Jan-10 18:33N 54°31' E 018°59'1111.2
2017-Jan-10 17:33N 54°42' E 019°03'1212.3
2017-Jan-10 16:33N 54°54' E 019°02'1312.5
2017-Jan-10 15:33N 55°07' E 019°02'301 6.5
2017-Jan-08 17:06N 59°35' E 023°13'611.3
2017-Jan-08 16:33N 59°37' E 023°25'1111.6
2017-Jan-08 15:33N 59°41' E 023°46'8 0.4
2017-Jan-07 19:06N 59°39' E 024°01'814.0
2017-Jan-07 18:31N 59°36' E 023°45'1414.1
2017-Jan-07 17:33N 59°31' E 023°20'  

Dump ship's entire track history